createdAt,value
2018-11-07T00:00:16.756Z,1001.81
2018-11-07T00:01:17.004Z,1001.85
2018-11-07T00:02:16.664Z,1001.82
2018-11-07T00:03:16.699Z,1001.83
2018-11-07T00:04:16.692Z,1001.83
2018-11-07T00:05:16.678Z,1001.82
2018-11-07T00:06:16.668Z,1001.75
2018-11-07T00:07:16.929Z,1001.72
2018-11-07T00:08:16.830Z,1001.68
2018-11-07T00:09:16.633Z,1001.73
2018-11-07T00:10:16.619Z,1001.65
2018-11-07T00:11:16.566Z,1001.58
2018-11-07T00:12:16.593Z,1001.58
2018-11-07T00:13:16.569Z,1001.64
2018-11-07T00:14:16.724Z,1001.67
2018-11-07T00:15:16.585Z,1001.72
2018-11-07T00:16:16.569Z,1001.75
2018-11-07T00:17:16.544Z,1001.77
2018-11-07T00:18:16.631Z,1001.80
2018-11-07T00:19:16.523Z,1001.81
2018-11-07T00:20:16.494Z,1001.82
2018-11-07T00:21:16.516Z,1001.84
2018-11-07T00:22:16.493Z,1001.81
2018-11-07T00:23:16.474Z,1001.81
2018-11-07T00:24:16.680Z,1001.79
2018-11-07T00:25:16.462Z,1001.76
2018-11-07T00:26:16.479Z,1001.79
2018-11-07T00:27:16.435Z,1001.80
2018-11-07T00:28:16.534Z,1001.72
2018-11-07T00:29:16.407Z,1001.78
2018-11-07T00:30:16.425Z,1001.71
2018-11-07T00:31:16.389Z,1001.68
2018-11-07T00:32:16.332Z,1001.72
2018-11-07T00:33:16.398Z,1001.77
2018-11-07T00:34:16.332Z,1001.76
2018-11-07T00:35:16.422Z,1001.73
2018-11-07T00:36:16.333Z,1001.67
2018-11-07T00:37:16.278Z,1001.72
2018-11-07T00:38:16.294Z,1001.67
2018-11-07T00:39:16.286Z,1001.70
2018-11-07T00:40:16.284Z,1001.67
2018-11-07T00:41:16.701Z,1001.66
2018-11-07T00:42:16.271Z,1001.69
2018-11-07T00:43:16.255Z,1001.69
2018-11-07T00:44:16.242Z,1001.68
2018-11-07T00:45:16.235Z,1001.69
2018-11-07T00:46:16.227Z,1001.70
2018-11-07T00:47:16.498Z,1001.79
2018-11-07T00:48:16.195Z,1001.79
2018-11-07T00:49:16.194Z,1001.79
2018-11-07T00:50:16.189Z,1001.81
2018-11-07T00:51:16.168Z,1001.84
2018-11-07T00:52:16.161Z,1001.82
2018-11-07T00:53:16.193Z,1001.82
2018-11-07T00:54:16.146Z,1001.85
2018-11-07T00:55:16.126Z,1001.80
2018-11-07T00:56:16.116Z,1001.84
2018-11-07T00:57:16.102Z,1001.78
2018-11-07T00:58:16.190Z,1001.77
2018-11-07T00:59:16.079Z,1001.85
2018-11-07T01:00:16.070Z,1001.88
2018-11-07T01:01:16.061Z,1001.95
2018-11-07T01:02:16.049Z,1002.05
2018-11-07T01:03:16.063Z,1002.08
2018-11-07T01:04:16.062Z,1002.10
2018-11-07T01:05:16.012Z,1002.14
2018-11-07T01:06:16.002Z,1002.11
2018-11-07T01:07:16.002Z,1002.11
2018-11-07T01:08:15.948Z,1002.03
2018-11-07T01:09:16.014Z,1002.10
2018-11-07T01:10:15.995Z,1002.07
2018-11-07T01:11:15.986Z,1002.08
2018-11-07T01:12:15.948Z,1002.07
2018-11-07T01:13:15.893Z,1002.08
2018-11-07T01:14:15.887Z,1002.11
2018-11-07T01:15:15.954Z,1002.07
2018-11-07T01:16:16.183Z,1002.04
2018-11-07T01:17:15.951Z,1002.03
2018-11-07T01:18:15.894Z,1002.02
2018-11-07T01:19:15.870Z,1002.02
2018-11-07T01:20:15.850Z,1002.03
2018-11-07T01:21:15.927Z,1002.07
2018-11-07T01:22:16.154Z,1002.08
2018-11-07T01:23:15.813Z,1002.10
2018-11-07T01:24:15.809Z,1002.06
2018-11-07T01:25:15.793Z,1002.07
2018-11-07T01:26:15.799Z,1002.11
2018-11-07T01:27:15.811Z,1002.05
2018-11-07T01:28:15.881Z,1002.04
2018-11-07T01:29:15.714Z,1002.06
2018-11-07T01:30:15.744Z,1002.08
2018-11-07T01:31:15.849Z,1002.08
2018-11-07T01:32:15.727Z,1002.15
2018-11-07T01:33:15.710Z,1002.19
2018-11-07T01:34:15.695Z,1002.19
2018-11-07T01:35:15.690Z,1002.24
2018-11-07T01:36:15.700Z,1002.21
2018-11-07T01:37:15.995Z,1002.20
2018-11-07T01:38:15.615Z,1002.17
2018-11-07T01:39:15.647Z,1002.18
2018-11-07T01:40:15.641Z,1002.19
2018-11-07T01:41:15.589Z,1002.20
2018-11-07T01:42:15.564Z,1002.17
2018-11-07T01:43:15.641Z,1002.12
2018-11-07T01:44:15.610Z,1002.08
2018-11-07T01:45:15.535Z,1002.06
2018-11-07T01:46:15.561Z,1002.07
2018-11-07T01:47:15.592Z,1002.07
2018-11-07T01:48:15.557Z,1002.09
2018-11-07T01:49:15.493Z,1002.07
2018-11-07T01:50:15.543Z,1002.08
2018-11-07T01:51:15.468Z,1002.07
2018-11-07T01:52:15.691Z,1002.05
2018-11-07T01:53:15.493Z,1002.05
2018-11-07T01:54:15.431Z,1002.13
2018-11-07T01:55:15.470Z,1002.10
2018-11-07T01:56:15.459Z,1002.08
2018-11-07T01:57:15.465Z,1002.05
2018-11-07T01:58:15.458Z,1002.04
2018-11-07T01:59:15.421Z,1001.98
2018-11-07T02:00:15.412Z,1001.96
2018-11-07T02:01:15.395Z,1001.99
2018-11-07T02:02:15.419Z,1002.02
2018-11-07T02:03:15.377Z,1002.04
2018-11-07T02:04:15.368Z,1001.98
2018-11-07T02:05:15.633Z,1002.01
2018-11-07T02:06:15.347Z,1001.97
2018-11-07T02:07:15.334Z,1001.97
2018-11-07T02:08:15.326Z,1002.04
2018-11-07T02:09:15.313Z,1002.10
2018-11-07T02:10:15.300Z,1002.11
2018-11-07T02:11:15.555Z,1002.07
2018-11-07T02:12:15.272Z,1002.10
2018-11-07T02:13:15.267Z,1002.07
2018-11-07T02:14:15.413Z,1002.07
2018-11-07T02:15:15.241Z,1002.10
2018-11-07T02:16:15.235Z,1002.05
2018-11-07T02:17:15.201Z,1002.05
2018-11-07T02:18:15.216Z,1002.04
2018-11-07T02:19:15.152Z,1002.03
2018-11-07T02:20:15.274Z,1001.98
2018-11-07T02:21:15.469Z,1002.04
2018-11-07T02:22:15.169Z,1002.02
2018-11-07T02:23:15.156Z,1002.02
2018-11-07T02:24:15.241Z,1002.00
2018-11-07T02:25:15.131Z,1002.05
2018-11-07T02:26:15.143Z,1002.06
2018-11-07T02:27:15.137Z,1002.02
2018-11-07T02:28:15.100Z,1002.07
2018-11-07T02:29:15.086Z,1002.09
2018-11-07T02:30:15.121Z,1002.07
2018-11-07T02:31:15.069Z,1002.08
2018-11-07T02:32:15.086Z,1002.07
2018-11-07T02:33:15.045Z,1002.07
2018-11-07T02:34:15.075Z,1002.11
2018-11-07T02:35:15.029Z,1002.11
2018-11-07T02:36:15.012Z,1002.07
2018-11-07T02:37:15.002Z,1002.05
2018-11-07T02:38:15.006Z,1002.03
2018-11-07T02:39:14.987Z,1002.00
2018-11-07T02:40:14.977Z,1002.06
2018-11-07T02:41:14.960Z,1002.02
2018-11-07T02:42:14.944Z,1002.07
2018-11-07T02:43:14.935Z,1002.13
2018-11-07T02:44:14.945Z,1002.15
2018-11-07T02:45:14.914Z,1002.17
2018-11-07T02:46:14.903Z,1002.12
2018-11-07T02:47:14.895Z,1002.11
2018-11-07T02:48:14.878Z,1002.11
2018-11-07T02:49:14.890Z,1002.08
2018-11-07T02:50:14.858Z,1002.06
2018-11-07T02:51:14.832Z,1002.10
2018-11-07T02:52:14.835Z,1002.04
2018-11-07T02:53:14.845Z,1002.08
2018-11-07T02:54:14.818Z,1002.06
2018-11-07T02:55:14.789Z,1002.10
2018-11-07T02:56:14.816Z,1002.09
2018-11-07T02:57:14.803Z,1002.03
2018-11-07T02:58:14.723Z,1002.06
2018-11-07T02:59:14.758Z,1002.03
2018-11-07T03:00:14.750Z,1001.98
2018-11-07T03:01:14.831Z,1001.94
2018-11-07T03:02:14.723Z,1001.96
2018-11-07T03:03:14.721Z,1001.89
2018-11-07T03:04:14.702Z,1001.90
2018-11-07T03:05:14.704Z,1001.92
2018-11-07T03:06:14.681Z,1001.90
2018-11-07T03:07:14.706Z,1001.89
2018-11-07T03:08:14.656Z,1001.94
2018-11-07T03:09:14.653Z,1001.87
2018-11-07T03:10:14.720Z,1001.86
2018-11-07T03:11:14.627Z,1001.87
2018-11-07T03:12:14.615Z,1001.84
2018-11-07T03:13:14.586Z,1001.83
2018-11-07T03:14:14.605Z,1001.90
2018-11-07T03:15:14.583Z,1001.87
2018-11-07T03:16:14.575Z,1001.90
2018-11-07T03:17:14.521Z,1001.92
2018-11-07T03:18:14.578Z,1001.90
2018-11-07T03:19:14.611Z,1001.93
2018-11-07T03:20:14.529Z,1001.97
2018-11-07T03:21:14.519Z,1001.94
2018-11-07T03:22:14.506Z,1001.98
2018-11-07T03:23:14.591Z,1001.97
2018-11-07T03:24:14.517Z,1001.93
2018-11-07T03:25:14.479Z,1001.95
2018-11-07T03:26:14.475Z,1001.96
2018-11-07T03:27:14.424Z,1001.94
2018-11-07T03:28:14.453Z,1001.96
2018-11-07T03:29:14.451Z,1001.96
2018-11-07T03:30:14.442Z,1001.91
2018-11-07T03:31:14.429Z,1001.85
2018-11-07T03:32:14.395Z,1001.86
2018-11-07T03:33:14.385Z,1001.77
2018-11-07T03:34:14.380Z,1001.81
2018-11-07T03:35:14.368Z,1001.81
2018-11-07T03:36:14.340Z,1001.79
2018-11-07T03:37:14.342Z,1001.80
2018-11-07T03:38:14.341Z,1001.79
2018-11-07T03:39:14.276Z,1001.82
2018-11-07T03:40:14.308Z,1001.85
2018-11-07T03:41:14.304Z,1001.84
2018-11-07T03:42:14.307Z,1001.82
2018-11-07T03:43:14.271Z,1001.79
2018-11-07T03:44:14.269Z,1001.83
2018-11-07T03:45:14.278Z,1001.81
2018-11-07T03:46:14.200Z,1001.79
2018-11-07T03:47:14.227Z,1001.73
2018-11-07T03:48:14.171Z,1001.75
2018-11-07T03:49:14.210Z,1001.78
2018-11-07T03:50:14.218Z,1001.82
2018-11-07T03:51:14.433Z,1001.78
2018-11-07T03:52:14.179Z,1001.87
2018-11-07T03:53:14.198Z,1001.84
2018-11-07T03:54:14.153Z,1001.83
2018-11-07T03:55:14.140Z,1001.78
2018-11-07T03:56:14.138Z,1001.76
2018-11-07T03:57:14.145Z,1001.73
2018-11-07T03:58:14.063Z,1001.71
2018-11-07T03:59:14.097Z,1001.78
2018-11-07T04:00:14.087Z,1001.83
2018-11-07T04:01:14.076Z,1001.83
2018-11-07T04:02:14.070Z,1001.81
2018-11-07T04:03:14.078Z,1001.77
2018-11-07T04:04:14.044Z,1001.73
2018-11-07T04:05:14.035Z,1001.74
2018-11-07T04:06:14.026Z,1001.75
2018-11-07T04:07:14.011Z,1001.80
2018-11-07T04:08:13.998Z,1001.83
2018-11-07T04:09:13.978Z,1001.80
2018-11-07T04:10:13.975Z,1001.78
2018-11-07T04:11:13.975Z,1001.79
2018-11-07T04:12:13.917Z,1001.76
2018-11-07T04:13:13.984Z,1001.78
2018-11-07T04:14:13.967Z,1001.74
2018-11-07T04:15:13.877Z,1001.74
2018-11-07T04:16:14.075Z,1001.74
2018-11-07T04:17:13.898Z,1001.73
2018-11-07T04:18:13.840Z,1001.68
2018-11-07T04:19:14.166Z,1001.75
2018-11-07T04:20:13.959Z,1001.72
2018-11-07T04:21:13.808Z,1001.75
2018-11-07T04:22:13.923Z,1001.78
2018-11-07T04:23:13.854Z,1001.76
2018-11-07T04:24:13.822Z,1001.78
2018-11-07T04:25:13.826Z,1001.77
2018-11-07T04:26:13.871Z,1001.74
2018-11-07T04:27:13.794Z,1001.77
2018-11-07T04:28:13.778Z,1001.78
2018-11-07T04:29:13.775Z,1001.77
2018-11-07T04:30:13.779Z,1001.81
2018-11-07T04:31:13.741Z,1001.81
2018-11-07T04:32:13.693Z,1001.71
2018-11-07T04:33:20.740Z,1001.74
2018-11-07T04:34:13.719Z,1001.76
2018-11-07T04:35:13.686Z,1001.77
2018-11-07T04:36:13.727Z,1001.78
2018-11-07T04:37:13.656Z,1001.80
2018-11-07T04:38:13.667Z,1001.75
2018-11-07T04:39:13.815Z,1001.73
2018-11-07T04:40:13.652Z,1001.76
2018-11-07T04:41:13.663Z,1001.79
2018-11-07T04:42:13.637Z,1001.82
2018-11-07T04:43:13.565Z,1001.80
2018-11-07T04:44:13.600Z,1001.82
2018-11-07T04:45:13.589Z,1001.82
2018-11-07T04:46:13.528Z,1001.86
2018-11-07T04:47:13.597Z,1001.91
2018-11-07T04:48:13.550Z,1001.90
2018-11-07T04:49:13.542Z,1001.98
2018-11-07T04:50:13.534Z,1002.02
2018-11-07T04:51:13.506Z,1001.99
2018-11-07T04:52:13.510Z,1001.97
2018-11-07T04:53:13.501Z,1001.94
2018-11-07T04:54:13.492Z,1002.00
2018-11-07T04:55:13.483Z,1002.00
2018-11-07T04:56:13.465Z,1001.99
2018-11-07T04:57:13.484Z,1002.03
2018-11-07T04:58:13.440Z,1002.08
2018-11-07T04:59:13.391Z,1001.98
2018-11-07T05:00:13.484Z,1002.03
2018-11-07T05:01:13.408Z,1002.07
2018-11-07T05:02:13.428Z,1002.16
2018-11-07T05:03:13.390Z,1002.09
2018-11-07T05:04:13.330Z,1002.11
2018-11-07T05:05:13.363Z,1002.24
2018-11-07T05:06:13.361Z,1002.19
2018-11-07T05:07:13.344Z,1002.27
2018-11-07T05:08:13.366Z,1002.30
2018-11-07T05:09:13.321Z,1002.28
2018-11-07T05:10:13.310Z,1002.26
2018-11-07T05:11:13.302Z,1002.28
2018-11-07T05:12:13.289Z,1002.28
2018-11-07T05:13:13.255Z,1002.27
2018-11-07T05:14:13.289Z,1002.20
2018-11-07T05:15:13.217Z,1002.23
2018-11-07T05:16:13.246Z,1002.21
2018-11-07T05:17:13.233Z,1002.16
2018-11-07T05:18:13.220Z,1002.19
2018-11-07T05:19:13.431Z,1002.17
2018-11-07T05:20:13.207Z,1002.14
2018-11-07T05:21:13.198Z,1002.09
2018-11-07T05:22:13.179Z,1002.02
2018-11-07T05:23:13.167Z,1002.01
2018-11-07T05:24:13.152Z,1001.92
2018-11-07T05:25:13.249Z,1001.94
2018-11-07T05:26:13.108Z,1001.92
2018-11-07T05:27:13.123Z,1001.85
2018-11-07T05:28:13.122Z,1001.84
2018-11-07T05:29:13.178Z,1001.92
2018-11-07T05:30:13.112Z,1001.86
2018-11-07T05:31:13.093Z,1001.92
2018-11-07T05:32:13.101Z,1001.84
2018-11-07T05:33:13.055Z,1001.81
2018-11-07T05:34:13.042Z,1001.81
2018-11-07T05:35:13.070Z,1001.81
2018-11-07T05:36:12.978Z,1001.81
2018-11-07T05:37:13.002Z,1001.80
2018-11-07T05:38:13.012Z,1001.82
2018-11-07T05:39:12.984Z,1001.78
2018-11-07T05:40:12.976Z,1001.70
2018-11-07T05:41:13.011Z,1001.70
2018-11-07T05:42:13.017Z,1001.70
2018-11-07T05:43:12.901Z,1001.73
2018-11-07T05:44:12.933Z,1001.68
2018-11-07T05:45:12.918Z,1001.69
2018-11-07T05:46:12.913Z,1001.65
2018-11-07T05:47:12.931Z,1001.68
2018-11-07T05:48:12.887Z,1001.66
2018-11-07T05:49:12.987Z,1001.64
2018-11-07T05:50:12.869Z,1001.64
2018-11-07T05:51:12.884Z,1001.64
2018-11-07T05:52:12.846Z,1001.61
2018-11-07T05:53:12.841Z,1001.64
2018-11-07T05:54:12.822Z,1001.58
2018-11-07T05:55:12.771Z,1001.60
2018-11-07T05:56:12.803Z,1001.58
2018-11-07T05:57:12.840Z,1001.64
2018-11-07T05:58:12.771Z,1001.61
2018-11-07T05:59:12.783Z,1001.65
2018-11-07T06:00:12.756Z,1001.61
2018-11-07T06:01:12.767Z,1001.59
2018-11-07T06:02:12.740Z,1001.61
2018-11-07T06:03:12.748Z,1001.61
2018-11-07T06:04:12.708Z,1001.55
2018-11-07T06:05:12.709Z,1001.60
2018-11-07T06:06:12.686Z,1001.61
2018-11-07T06:07:12.711Z,1001.65
2018-11-07T06:08:12.663Z,1001.64
2018-11-07T06:09:12.652Z,1001.69
2018-11-07T06:10:12.650Z,1001.71
2018-11-07T06:11:12.629Z,1001.76
2018-11-07T06:12:12.806Z,1001.80
2018-11-07T06:13:12.645Z,1001.78
2018-11-07T06:14:12.598Z,1001.75
2018-11-07T06:15:12.590Z,1001.76
2018-11-07T06:16:12.680Z,1001.73
2018-11-07T06:17:12.565Z,1001.76
2018-11-07T06:18:12.731Z,1001.70
2018-11-07T06:19:12.541Z,1001.66
2018-11-07T06:20:12.529Z,1001.61
2018-11-07T06:21:12.480Z,1001.59
2018-11-07T06:22:12.466Z,1001.67
2018-11-07T06:23:12.552Z,1001.60
2018-11-07T06:24:12.557Z,1001.60
2018-11-07T06:25:12.474Z,1001.59
2018-11-07T06:26:12.418Z,1001.60
2018-11-07T06:27:12.457Z,1001.59
2018-11-07T06:28:12.591Z,1001.57
2018-11-07T06:29:12.433Z,1001.58
2018-11-07T06:30:12.431Z,1001.61
2018-11-07T06:31:12.407Z,1001.64
2018-11-07T06:32:12.358Z,1001.63
2018-11-07T06:33:12.412Z,1001.71
2018-11-07T06:34:12.476Z,1001.67
2018-11-07T06:35:12.376Z,1001.65
2018-11-07T06:36:12.353Z,1001.66
2018-11-07T06:37:12.314Z,1001.62
2018-11-07T06:38:12.322Z,1001.58
2018-11-07T06:39:12.363Z,1001.64
2018-11-07T06:40:12.306Z,1001.62
2018-11-07T06:41:12.297Z,1001.65
2018-11-07T06:42:12.302Z,1001.65
2018-11-07T06:43:12.276Z,1001.67
2018-11-07T06:44:12.228Z,1001.67
2018-11-07T06:45:12.254Z,1001.59
2018-11-07T06:46:12.240Z,1001.53
2018-11-07T06:47:12.282Z,1001.55
2018-11-07T06:48:12.227Z,1001.49
2018-11-07T06:49:12.212Z,1001.62
2018-11-07T06:50:12.158Z,1001.58
2018-11-07T06:51:19.171Z,1001.66
2018-11-07T06:52:12.163Z,1001.61
2018-11-07T06:53:12.165Z,1001.71
2018-11-07T06:54:12.147Z,1001.74
2018-11-07T06:55:12.181Z,1001.78
2018-11-07T06:56:12.136Z,1001.78
2018-11-07T06:57:12.158Z,1001.85
2018-11-07T06:58:12.111Z,1001.89
2018-11-07T06:59:12.124Z,1001.91
2018-11-07T07:00:12.168Z,1001.89
2018-11-07T07:01:12.116Z,1001.92
2018-11-07T07:02:12.034Z,1001.84
2018-11-07T07:03:12.059Z,1001.86
2018-11-07T07:04:12.039Z,1001.90
2018-11-07T07:05:12.328Z,1001.91
2018-11-07T07:06:12.027Z,1001.89
2018-11-07T07:07:12.008Z,1001.94
2018-11-07T07:08:11.961Z,1001.91
2018-11-07T07:09:11.995Z,1001.93
2018-11-07T07:10:12.005Z,1001.95
2018-11-07T07:11:11.965Z,1001.99
2018-11-07T07:12:11.991Z,1001.94
2018-11-07T07:13:11.941Z,1001.95
2018-11-07T07:14:11.932Z,1001.97
2018-11-07T07:15:11.888Z,1002.00
2018-11-07T07:16:11.909Z,1002.04
2018-11-07T07:17:12.003Z,1002.08
2018-11-07T07:18:11.970Z,1002.05
2018-11-07T07:19:11.832Z,1002.03
2018-11-07T07:20:11.871Z,1002.05
2018-11-07T07:21:11.943Z,1002.09
2018-11-07T07:22:11.846Z,1002.09
2018-11-07T07:23:11.836Z,1002.16
2018-11-07T07:24:11.824Z,1002.12
2018-11-07T07:25:11.896Z,1002.16
2018-11-07T07:26:11.812Z,1002.22
2018-11-07T07:27:11.896Z,1002.23
2018-11-07T07:28:11.781Z,1002.23
2018-11-07T07:29:11.769Z,1002.21
2018-11-07T07:30:11.793Z,1002.19
2018-11-07T07:31:11.820Z,1002.19
2018-11-07T07:32:11.714Z,1002.20
2018-11-07T07:33:11.837Z,1002.19
2018-11-07T07:34:11.712Z,1002.15
2018-11-07T07:35:11.702Z,1002.15
2018-11-07T07:36:11.741Z,1002.13
2018-11-07T07:37:11.698Z,1002.15
2018-11-07T07:38:11.699Z,1002.16
2018-11-07T07:39:11.657Z,1002.16
2018-11-07T07:40:11.650Z,1002.19
2018-11-07T07:41:11.632Z,1002.20
2018-11-07T07:42:11.627Z,1002.14
2018-11-07T07:43:11.624Z,1002.16
2018-11-07T07:44:11.610Z,1002.15
2018-11-07T07:45:11.629Z,1002.17
2018-11-07T07:46:11.584Z,1002.18
2018-11-07T07:47:11.522Z,1002.16
2018-11-07T07:48:11.568Z,1002.16
2018-11-07T07:49:11.601Z,1002.14
2018-11-07T07:50:11.601Z,1002.15
2018-11-07T07:51:11.529Z,1002.17
2018-11-07T07:52:11.524Z,1002.19
2018-11-07T07:53:11.588Z,1002.16
2018-11-07T07:54:11.495Z,1002.14
2018-11-07T07:55:11.716Z,1002.15
2018-11-07T07:56:11.473Z,1002.19
2018-11-07T07:57:11.424Z,1002.16
2018-11-07T07:58:11.480Z,1002.15
2018-11-07T07:59:11.394Z,1002.15
2018-11-07T08:00:11.433Z,1002.17
2018-11-07T08:01:11.452Z,1002.11
2018-11-07T08:02:11.408Z,1002.06
2018-11-07T08:03:11.397Z,1002.09
2018-11-07T08:04:11.422Z,1002.10
2018-11-07T08:05:11.435Z,1002.09
2018-11-07T08:06:11.360Z,1002.13
2018-11-07T08:07:11.358Z,1002.13
2018-11-07T08:08:11.343Z,1002.10
2018-11-07T08:09:11.338Z,1002.10
2018-11-07T08:10:11.381Z,1002.04
2018-11-07T08:11:11.308Z,1002.10
2018-11-07T08:12:11.297Z,1002.03
2018-11-07T08:13:11.284Z,1002.05
2018-11-07T08:14:11.244Z,1002.01
2018-11-07T08:15:11.294Z,1002.05
2018-11-07T08:16:11.263Z,1002.07
2018-11-07T08:17:11.241Z,1001.96
2018-11-07T08:18:11.533Z,1002.00
2018-11-07T08:19:11.217Z,1001.95
2018-11-07T08:20:11.189Z,1001.95
2018-11-07T08:21:11.275Z,1001.95
2018-11-07T08:22:11.185Z,1001.98
2018-11-07T08:23:11.212Z,1002.00
2018-11-07T08:24:11.118Z,1002.02
2018-11-07T08:25:11.191Z,1002.04
2018-11-07T08:26:11.145Z,1002.04
2018-11-07T08:27:11.144Z,1002.06
2018-11-07T08:28:11.156Z,1002.01
2018-11-07T08:29:11.124Z,1002.06
2018-11-07T08:30:11.066Z,1002.06
2018-11-07T08:31:11.130Z,1002.11
2018-11-07T08:32:11.112Z,1002.14
2018-11-07T08:33:11.072Z,1002.10
2018-11-07T08:34:11.132Z,1002.11
2018-11-07T08:35:11.089Z,1002.13
2018-11-07T08:36:11.120Z,1002.12
2018-11-07T08:37:11.219Z,1002.11
2018-11-07T08:38:11.009Z,1002.12
2018-11-07T08:39:11.010Z,1002.15
2018-11-07T08:40:10.990Z,1002.11
2018-11-07T08:41:11.023Z,1002.18
2018-11-07T08:42:11.004Z,1002.15
2018-11-07T08:43:10.954Z,1002.11
2018-11-07T08:44:10.947Z,1002.14
2018-11-07T08:45:10.934Z,1002.14
2018-11-07T08:46:10.961Z,1002.16
2018-11-07T08:47:10.914Z,1002.11
2018-11-07T08:48:10.975Z,1002.13
2018-11-07T08:49:10.893Z,1002.14
2018-11-07T08:50:10.850Z,1002.14
2018-11-07T08:51:10.897Z,1002.13
2018-11-07T08:52:10.858Z,1002.06
2018-11-07T08:53:10.848Z,1002.15
2018-11-07T08:54:10.835Z,1002.12
2018-11-07T08:55:10.908Z,1002.10
2018-11-07T08:56:10.852Z,1002.09
2018-11-07T08:57:10.839Z,1002.07
2018-11-07T08:58:10.799Z,1002.10
2018-11-07T08:59:10.779Z,1002.07
2018-11-07T09:00:10.776Z,1002.09
2018-11-07T09:01:10.832Z,1002.10
2018-11-07T09:02:10.833Z,1002.04
2018-11-07T09:03:10.736Z,1002.08
2018-11-07T09:04:10.723Z,1002.09
2018-11-07T09:05:10.717Z,1002.09
2018-11-07T09:06:10.742Z,1002.11
2018-11-07T09:07:10.694Z,1002.06
2018-11-07T09:08:10.725Z,1002.09
2018-11-07T09:09:10.691Z,1002.09
2018-11-07T09:10:10.670Z,1002.11
2018-11-07T09:11:10.602Z,1002.09
2018-11-07T09:12:10.683Z,1002.06
2018-11-07T09:13:10.806Z,1002.14
2018-11-07T09:14:10.622Z,1002.12
2018-11-07T09:15:10.613Z,1002.14
2018-11-07T09:16:10.551Z,1002.18
2018-11-07T09:17:10.731Z,1002.13
2018-11-07T09:18:10.567Z,1002.12
2018-11-07T09:19:10.570Z,1002.17
2018-11-07T09:20:10.527Z,1002.14
2018-11-07T09:21:10.503Z,1002.12
2018-11-07T09:22:10.529Z,1002.06
2018-11-07T09:23:10.612Z,1002.15
2018-11-07T09:24:10.593Z,1002.07
2018-11-07T09:25:10.495Z,1002.08
2018-11-07T09:26:10.507Z,1002.08
2018-11-07T09:27:10.543Z,1002.08
2018-11-07T09:28:10.469Z,1001.98
2018-11-07T09:29:10.548Z,1002.00
2018-11-07T09:30:10.459Z,1001.94
2018-11-07T09:31:10.477Z,1001.96
2018-11-07T09:32:10.378Z,1002.00
2018-11-07T09:33:10.439Z,1001.98
2018-11-07T09:34:10.431Z,1001.99
2018-11-07T09:35:10.386Z,1001.96
2018-11-07T09:36:10.367Z,1001.93
2018-11-07T09:37:10.371Z,1001.99
2018-11-07T09:38:10.356Z,1002.05
2018-11-07T09:39:10.341Z,1002.02
2018-11-07T09:40:10.290Z,1002.03
2018-11-07T09:41:10.363Z,1002.10
2018-11-07T09:42:10.314Z,1002.03
2018-11-07T09:43:10.299Z,1002.02
2018-11-07T09:44:10.288Z,1002.04
2018-11-07T09:45:10.276Z,1002.04
2018-11-07T09:46:10.319Z,1002.06
2018-11-07T09:47:10.251Z,1002.06
2018-11-07T09:48:10.219Z,1002.04
2018-11-07T09:49:10.227Z,1002.03
2018-11-07T09:50:10.268Z,1002.07
2018-11-07T09:51:10.286Z,1001.96
2018-11-07T09:52:10.239Z,1002.02
2018-11-07T09:53:10.188Z,1002.03
2018-11-07T09:54:10.186Z,1002.02
2018-11-07T09:55:10.161Z,1002.02
2018-11-07T09:56:10.160Z,1001.95
2018-11-07T09:57:10.144Z,1001.94
2018-11-07T09:58:10.162Z,1001.98
2018-11-07T09:59:10.128Z,1001.99
2018-11-07T10:00:10.110Z,1001.98
2018-11-07T10:01:10.102Z,1001.96
2018-11-07T10:02:10.129Z,1001.99
2018-11-07T10:03:10.078Z,1002.04
2018-11-07T10:04:10.070Z,1001.99
2018-11-07T10:05:10.054Z,1002.03
2018-11-07T10:06:10.060Z,1002.01
2018-11-07T10:07:10.078Z,1002.02
2018-11-07T10:08:10.027Z,1002.04
2018-11-07T10:09:10.017Z,1002.04
2018-11-07T10:10:09.995Z,1001.97
2018-11-07T10:11:09.990Z,1001.98
2018-11-07T10:12:09.977Z,1002.05
2018-11-07T10:13:09.998Z,1002.02
2018-11-07T10:14:09.986Z,1001.96
2018-11-07T10:15:09.931Z,1001.96
2018-11-07T10:16:09.887Z,1001.92
2018-11-07T10:17:09.924Z,1001.97
2018-11-07T10:18:09.911Z,1001.97
2018-11-07T10:19:09.904Z,1001.97
2018-11-07T10:20:10.089Z,1001.95
2018-11-07T10:21:09.884Z,1001.99
2018-11-07T10:22:09.885Z,1002.06
2018-11-07T10:23:09.858Z,1002.03
2018-11-07T10:24:09.845Z,1002.00
2018-11-07T10:25:09.867Z,1001.98
2018-11-07T10:26:09.914Z,1002.03
2018-11-07T10:27:09.994Z,1002.02
2018-11-07T10:28:10.133Z,1001.97
2018-11-07T10:29:10.000Z,1002.01
2018-11-07T10:30:10.038Z,1002.00
2018-11-07T10:31:09.804Z,1002.01
2018-11-07T10:32:09.714Z,1001.97
2018-11-07T10:33:09.762Z,1001.86
2018-11-07T10:34:09.769Z,1001.83
2018-11-07T10:35:09.732Z,1001.85
2018-11-07T10:36:09.745Z,1001.87
2018-11-07T10:37:09.705Z,1001.84
2018-11-07T10:38:09.859Z,1001.83
2018-11-07T10:39:09.725Z,1001.78
2018-11-07T10:40:09.686Z,1001.79
2018-11-07T10:41:09.665Z,1001.79
2018-11-07T10:42:09.647Z,1001.80
2018-11-07T10:43:09.595Z,1001.80
2018-11-07T10:44:09.673Z,1001.78
2018-11-07T10:45:09.638Z,1001.80
2018-11-07T10:46:09.689Z,1001.73
2018-11-07T10:47:09.634Z,1001.72
2018-11-07T10:48:09.586Z,1001.72
2018-11-07T10:49:09.580Z,1001.69
2018-11-07T10:50:09.515Z,1001.74
2018-11-07T10:51:09.546Z,1001.67
2018-11-07T10:52:09.549Z,1001.75
2018-11-07T10:53:09.528Z,1001.76
2018-11-07T10:54:09.528Z,1001.77
2018-11-07T10:55:09.516Z,1001.71
2018-11-07T10:56:09.539Z,1001.63
2018-11-07T10:57:09.453Z,1001.70
2018-11-07T10:58:09.442Z,1001.70
2018-11-07T10:59:09.489Z,1001.69
2018-11-07T11:00:09.459Z,1001.74
2018-11-07T11:01:09.477Z,1001.73
2018-11-07T11:02:09.402Z,1001.72
2018-11-07T11:03:09.444Z,1001.68
2018-11-07T11:04:09.408Z,1001.67
2018-11-07T11:05:09.374Z,1001.67
2018-11-07T11:06:09.428Z,1001.72
2018-11-07T11:07:09.387Z,1001.69
2018-11-07T11:08:09.417Z,1001.70
2018-11-07T11:09:09.395Z,1001.68
2018-11-07T11:10:09.704Z,1001.69
2018-11-07T11:11:09.321Z,1001.70
2018-11-07T11:12:09.343Z,1001.66
2018-11-07T11:13:09.384Z,1001.64
2018-11-07T11:14:09.270Z,1001.59
2018-11-07T11:15:09.254Z,1001.60
2018-11-07T11:16:09.282Z,1001.61
2018-11-07T11:17:09.287Z,1001.58
2018-11-07T11:18:09.248Z,1001.55
2018-11-07T11:19:09.381Z,1001.52
2018-11-07T11:20:09.244Z,1001.55
2018-11-07T11:21:09.232Z,1001.57
2018-11-07T11:22:09.275Z,1001.56
2018-11-07T11:23:09.350Z,1001.51
2018-11-07T11:24:09.197Z,1001.53
2018-11-07T11:25:09.132Z,1001.53
2018-11-07T11:26:09.177Z,1001.53
2018-11-07T11:27:09.234Z,1001.50
2018-11-07T11:28:09.183Z,1001.48
2018-11-07T11:29:09.180Z,1001.51
2018-11-07T11:30:09.131Z,1001.49
2018-11-07T11:31:09.124Z,1001.50
2018-11-07T11:32:09.104Z,1001.54
2018-11-07T11:33:09.053Z,1001.52
2018-11-07T11:34:09.116Z,1001.50
2018-11-07T11:35:09.194Z,1001.49
2018-11-07T11:36:09.014Z,1001.51
2018-11-07T11:37:09.089Z,1001.50
2018-11-07T11:38:09.031Z,1001.49
2018-11-07T11:39:09.038Z,1001.52
2018-11-07T11:40:09.023Z,1001.55
2018-11-07T11:41:09.101Z,1001.53
2018-11-07T11:42:08.954Z,1001.56
2018-11-07T11:43:09.027Z,1001.56
2018-11-07T11:44:09.017Z,1001.60
2018-11-07T11:45:08.966Z,1001.58
2018-11-07T11:46:08.904Z,1001.56
2018-11-07T11:47:08.903Z,1001.59
2018-11-07T11:48:08.932Z,1001.56
2018-11-07T11:49:08.971Z,1001.59
2018-11-07T11:50:08.910Z,1001.56
2018-11-07T11:51:08.934Z,1001.59
2018-11-07T11:52:08.884Z,1001.63
2018-11-07T11:53:08.897Z,1001.59
2018-11-07T11:54:08.898Z,1001.57
2018-11-07T11:55:08.894Z,1001.61
2018-11-07T11:56:08.847Z,1001.65
2018-11-07T11:57:08.781Z,1001.66
2018-11-07T11:58:08.859Z,1001.68
2018-11-07T11:59:08.983Z,1001.65
2018-11-07T12:00:09.143Z,1001.68
2018-11-07T12:01:08.789Z,1001.64
2018-11-07T12:02:08.825Z,1001.70
2018-11-07T12:03:08.772Z,1001.68
2018-11-07T12:04:08.707Z,1001.65
2018-11-07T12:05:08.798Z,1001.65